Time;durP1;ratioP1;P1;durP2;ratioP2;P2;SDS_P1;SDS_P2;PMS_P1;PMS_P2;Temp;Humidity;BMP_temperature;BMP_pressure;BME280_temperature;BME280_humidity;BME280_pressure;Samples;Min_cycle;Max_cycle;Signal;HPM_P1;HPM_P2
2023/04/16 00:01:30;;;;;;;24.75;11.02;;;;;;;;;;8432782;28;20040;-85
2023/04/16 00:05:33;;;;;;;24.77;10.60;;;;;;;;;;8432829;28;20048;-87
2023/04/16 00:09:35;;;;;;;20.10;10.30;;;;;;;;;;8431349;28;20050;-86
2023/04/16 00:13:38;;;;;;;21.48;9.52;;;;;;;;;;8432827;28;20051;-85
2023/04/16 00:17:43;;;;;;;22.17;11.05;;;;;;;;;;8432122;28;20419;-87
2023/04/16 00:21:46;;;;;;;24.17;10.85;;;;;;;;;;8431953;28;20052;-85
2023/04/16 00:25:49;;;;;;;24.08;11.23;;;;;;;;;;8432000;28;20233;-85
2023/04/16 00:34:05;;;;;;;21.48;9.75;;;;;;;;;;8547801;22;20135;-86
2023/04/16 00:38:07;;;;;;;19.95;9.82;;;;;;;;;;8398774;28;20551;-85
2023/04/16 00:42:10;;;;;;;21.63;9.27;;;;;;;;;;8398599;28;20079;-85
2023/04/16 00:46:13;;;;;;;23.75;10.35;;;;;;;;;;8380595;28;20136;-85
2023/04/16 00:50:18;;;;;;;20.65;9.63;;;;;;;;;;8396274;28;20051;-86
2023/04/16 00:54:20;;;;;;;21.48;10.68;;;;;;;;;;8378879;28;20049;-87
2023/04/16 00:58:24;;;;;;;27.73;12.48;;;;;;;;;;8387819;28;20044;-86
2023/04/16 01:02:27;;;;;;;26.00;9.73;;;;;;;;;;8388005;28;20060;-86
2023/04/16 01:06:31;;;;;;;23.90;10.32;;;;;;;;;;8374067;28;20094;-86
2023/04/16 01:10:34;;;;;;;24.50;10.40;;;;;;;;;;8392740;28;20048;-86
2023/04/16 01:14:37;;;;;;;23.15;10.02;;;;;;;;;;8385131;28;20506;-86
2023/04/16 01:18:39;;;;;;;28.77;11.52;;;;;;;;;;8376784;28;20051;-85
2023/04/16 01:22:44;;;;;;;22.83;11.05;;;;;;;;;;8391234;28;20071;-86
2023/04/16 01:26:46;;;;;;;23.67;10.70;;;;;;;;;;8396504;28;20040;-86
2023/04/16 01:30:49;;;;;;;26.63;10.75;;;;;;;;;;8396230;28;20060;-86
2023/04/16 01:34:52;;;;;;;24.00;9.93;;;;;;;;;;8395827;28;20044;-86
2023/04/16 01:38:57;;;;;;;22.27;8.77;;;;;;;;;;8396406;28;20128;-86
2023/04/16 01:43:00;;;;;;;23.67;9.80;;;;;;;;;;8395936;28;20115;-86
2023/04/16 01:47:03;;;;;;;23.08;9.13;;;;;;;;;;8396087;28;20123;-87
2023/04/16 01:51:06;;;;;;;18.40;8.45;;;;;;;;;;8395968;28;20150;-87
2023/04/16 01:55:11;;;;;;;20.95;9.27;;;;;;;;;;8395942;28;20047;-87
2023/04/16 01:59:13;;;;;;;20.35;9.10;;;;;;;;;;8396053;28;20052;-87
2023/04/16 02:03:17;;;;;;;26.40;9.73;;;;;;;;;;8377817;28;20048;-86
2023/04/16 02:07:20;;;;;;;23.10;10.38;;;;;;;;;;8395626;28;20143;-87
2023/04/16 02:11:24;;;;;;;27.15;10.35;;;;;;;;;;8382613;28;20044;-87
2023/04/16 02:15:27;;;;;;;23.58;9.93;;;;;;;;;;8395718;28;20484;-86
2023/04/16 02:19:30;;;;;;;22.23;9.07;;;;;;;;;;8395555;28;20044;-87
2023/04/16 02:23:33;;;;;;;22.05;9.95;;;;;;;;;;8395563;28;20040;-86
2023/04/16 02:27:37;;;;;;;29.92;10.00;;;;;;;;;;8395776;28;20119;-86
2023/04/16 02:31:40;;;;;;;27.50;11.57;;;;;;;;;;8395356;28;20686;-87
2023/04/16 02:35:43;;;;;;;30.02;11.55;;;;;;;;;;8395601;28;20487;-86
2023/04/16 02:39:48;;;;;;;27.73;10.95;;;;;;;;;;8395224;28;20049;-87
2023/04/16 02:43:52;;;;;;;31.10;11.00;;;;;;;;;;8396357;28;20399;-88
2023/04/16 02:47:55;;;;;;;26.98;11.07;;;;;;;;;;8401685;28;20047;-87
2023/04/16 02:51:58;;;;;;;29.05;10.43;;;;;;;;;;8401395;28;20492;-87
2023/04/16 02:56:01;;;;;;;25.60;10.90;;;;;;;;;;8383431;28;20076;-87
2023/04/16 03:00:07;;;;;;;19.73;8.98;;;;;;;;;;8401442;28;20497;-87
2023/04/16 03:04:09;;;;;;;25.85;10.15;;;;;;;;;;8383251;28;20048;-87
2023/04/16 03:08:12;;;;;;;27.30;10.40;;;;;;;;;;8388145;28;20045;-87
2023/04/16 03:12:15;;;;;;;29.20;9.25;;;;;;;;;;8401279;28;20139;-87
2023/04/16 03:16:20;;;;;;;34.47;11.27;;;;;;;;;;8387905;28;20041;-88
2023/04/16 03:20:23;;;;;;;35.75;11.48;;;;;;;;;;8400895;28;20052;-87
2023/04/16 03:24:27;;;;;;;61.03;12.32;;;;;;;;;;8400852;28;20064;-88
2023/04/16 03:28:29;;;;;;;53.40;12.18;;;;;;;;;;8400631;28;20044;-88
2023/04/16 03:32:34;;;;;;;56.10;13.23;;;;;;;;;;8400489;28;20052;-88
2023/04/16 03:36:37;;;;;;;35.38;10.73;;;;;;;;;;8400691;28;20131;-88
2023/04/16 03:40:40;;;;;;;34.75;9.93;;;;;;;;;;8400143;28;20040;-88
2023/04/16 03:44:43;;;;;;;51.00;10.98;;;;;;;;;;8400045;28;20484;-88
2023/04/16 03:48:47;;;;;;;30.55;7.75;;;;;;;;;;8399953;28;20494;-88
2023/04/16 03:52:50;;;;;;;23.95;7.75;;;;;;;;;;8399503;28;20052;-89
2023/04/16 03:56:53;;;;;;;27.63;8.60;;;;;;;;;;8399199;28;20159;-88
2023/04/16 04:00:56;;;;;;;37.10;8.25;;;;;;;;;;8399544;28;20044;-88
2023/04/16 04:05:00;;;;;;;37.70;8.68;;;;;;;;;;8399592;28;20119;-88
2023/04/16 04:09:04;;;;;;;30.70;9.68;;;;;;;;;;8399828;28;20146;-87
2023/04/16 04:13:07;;;;;;;29.52;7.78;;;;;;;;;;8399240;28;20484;-89
2023/04/16 04:17:10;;;;;;;52.70;7.85;;;;;;;;;;8399139;28;20068;-90
2023/04/16 04:21:15;;;;;;;30.92;8.52;;;;;;;;;;8399032;28;20052;-89
2023/04/16 04:25:18;;;;;;;32.60;7.75;;;;;;;;;;8398856;28;20044;-89
2023/04/16 04:29:21;;;;;;;34.65;10.55;;;;;;;;;;8398961;28;20044;-88
2023/04/16 04:33:23;;;;;;;27.05;8.45;;;;;;;;;;8398545;28;20058;-88
2023/04/16 04:37:28;;;;;;;18.15;8.75;;;;;;;;;;8398744;28;20617;-89
2023/04/16 04:41:31;;;;;;;21.17;9.77;;;;;;;;;;8395668;28;20049;-89
2023/04/16 04:45:34;;;;;;;23.33;6.80;;;;;;;;;;8398332;28;20060;-89
2023/04/16 04:49:37;;;;;;;18.48;7.80;;;;;;;;;;8398417;28;20040;-90
2023/04/16 04:53:41;;;;;;;27.63;7.82;;;;;;;;;;8385324;28;20051;-89
2023/04/16 04:57:44;;;;;;;18.60;7.13;;;;;;;;;;8397975;28;20056;-89
2023/04/16 05:01:47;;;;;;;29.70;14.65;;;;;;;;;;8397969;28;20090;-89
2023/04/16 05:05:50;;;;;;;19.55;6.93;;;;;;;;;;8397679;28;20044;-90
2023/04/16 05:09:55;;;;;;;23.05;9.50;;;;;;;;;;8396630;28;20556;-89
2023/04/16 05:13:58;;;;;;;33.03;7.35;;;;;;;;;;8397455;28;20508;-89
2023/04/16 05:18:01;;;;;;;15.50;5.60;;;;;;;;;;8395825;28;20045;-88
2023/04/16 05:22:04;;;;;;;13.35;7.05;;;;;;;;;;8397270;28;20053;-89
2023/04/16 05:26:08;;;;;;;26.23;10.25;;;;;;;;;;8396410;28;20143;-89
2023/04/16 05:30:12;;;;;;;16.92;7.18;;;;;;;;;;8397125;28;20071;-88
2023/04/16 05:34:15;;;;;;;11.15;6.53;;;;;;;;;;8396809;28;20052;-88
2023/04/16 05:38:18;;;;;;;20.13;10.95;;;;;;;;;;8397088;28;20058;-89
2023/04/16 05:42:22;;;;;;;15.55;6.55;;;;;;;;;;8395727;28;20051;-88
2023/04/16 05:46:25;;;;;;;16.75;7.40;;;;;;;;;;8395357;28;20092;-89
2023/04/16 05:50:28;;;;;;;13.20;7.30;;;;;;;;;;8374555;28;20044;-89
2023/04/16 05:54:31;;;;;;;17.52;8.93;;;;;;;;;;8375252;28;20044;-89
2023/04/16 05:58:36;;;;;;;16.92;9.23;;;;;;;;;;8384621;28;20059;-90
2023/04/16 06:02:39;;;;;;;12.13;6.97;;;;;;;;;;8392186;28;20119;-89
2023/04/16 06:06:42;;;;;;;13.65;8.45;;;;;;;;;;8390225;28;20052;-88
2023/04/16 06:10:46;;;;;;;23.60;10.38;;;;;;;;;;8390991;28;20454;-89
2023/04/16 06:14:51;;;;;;;23.20;8.23;;;;;;;;;;8395500;28;20049;-90
2023/04/16 06:18:54;;;;;;;10.75;6.88;;;;;;;;;;8395353;28;20120;-87
2023/04/16 06:22:57;;;;;;;14.77;6.72;;;;;;;;;;8395307;28;20056;-88
2023/04/16 06:27:00;;;;;;;99.53;31.63;;;;;;;;;;8395438;28;20568;-88
2023/04/16 06:31:04;;;;;;;22.83;11.88;;;;;;;;;;8394916;28;20056;-88
2023/04/16 06:35:08;;;;;;;30.45;15.48;;;;;;;;;;8395571;28;20071;-89
2023/04/16 06:39:11;;;;;;;24.67;12.27;;;;;;;;;;8394890;28;20045;-88
2023/04/16 06:43:14;;;;;;;16.67;9.40;;;;;;;;;;8395188;28;20057;-88
2023/04/16 06:47:19;;;;;;;15.65;8.88;;;;;;;;;;8377156;28;20057;-87
2023/04/16 06:51:21;;;;;;;15.10;8.95;;;;;;;;;;8394069;28;20052;-89
2023/04/16 06:55:24;;;;;;;16.75;9.82;;;;;;;;;;8377046;28;20053;-88
2023/04/16 06:59:27;;;;;;;10.90;6.93;;;;;;;;;;8384488;28;20049;-88
2023/04/16 07:03:32;;;;;;;14.60;8.50;;;;;;;;;;8392453;28;20067;-87
2023/04/16 07:07:35;;;;;;;13.60;7.07;;;;;;;;;;8392338;28;20052;-88
2023/04/16 07:11:38;;;;;;;10.68;7.05;;;;;;;;;;8389736;28;20048;-88
2023/04/16 07:15:41;;;;;;;17.90;9.98;;;;;;;;;;8377111;28;20090;-88
2023/04/16 07:19:45;;;;;;;13.05;8.88;;;;;;;;;;8375179;28;20079;-87
2023/04/16 07:23:48;;;;;;;10.32;7.15;;;;;;;;;;8381839;28;20534;-86
2023/04/16 07:27:51;;;;;;;11.48;7.43;;;;;;;;;;8379305;28;20044;-86
2023/04/16 07:31:54;;;;;;;13.02;7.47;;;;;;;;;;8387662;28;20427;-86
2023/04/16 07:35:58;;;;;;;11.38;7.00;;;;;;;;;;8386291;28;20054;-86
2023/04/16 07:40:02;;;;;;;20.90;10.48;;;;;;;;;;8386861;28;20215;-86
2023/04/16 07:44:05;;;;;;;14.75;6.72;;;;;;;;;;8393334;28;20502;-87
2023/04/16 07:48:08;;;;;;;8.30;5.55;;;;;;;;;;8380360;28;20048;-87
2023/04/16 07:52:13;;;;;;;7.55;4.72;;;;;;;;;;8374268;28;20480;-86
2023/04/16 07:56:16;;;;;;;9.15;5.72;;;;;;;;;;8378978;28;20148;-89
2023/04/16 08:00:20;;;;;;;7.28;4.90;;;;;;;;;;8383187;28;20049;-89
2023/04/16 08:04:24;;;;;;;7.80;5.38;;;;;;;;;;8393918;28;20044;-89
2023/04/16 08:08:29;;;;;;;10.85;6.10;;;;;;;;;;8389325;28;20474;-88
2023/04/16 08:12:32;;;;;;;9.98;6.68;;;;;;;;;;8369903;28;20045;-88
2023/04/16 08:16:34;;;;;;;10.25;5.72;;;;;;;;;;8382267;28;20475;-88
2023/04/16 08:20:37;;;;;;;13.70;7.57;;;;;;;;;;8370274;28;20352;-88
2023/04/16 08:24:42;;;;;;;6.60;4.57;;;;;;;;;;8380657;28;20048;-89
2023/04/16 08:28:45;;;;;;;11.90;7.88;;;;;;;;;;8382200;28;20048;-89
2023/04/16 08:32:48;;;;;;;12.23;8.75;;;;;;;;;;8389844;28;20064;-88
2023/04/16 08:36:52;;;;;;;10.48;7.25;;;;;;;;;;8389850;28;20419;-88
2023/04/16 08:40:58;;;;;;;14.38;8.60;;;;;;;;;;8379767;28;20218;-90
2023/04/16 08:45:07;;;;;;;12.18;8.13;;;;;;;;;;8392238;28;20049;-88
2023/04/16 08:49:17;;;;;;;12.90;6.15;;;;;;;;;;8377116;28;20060;-89
2023/04/16 08:53:28;;;;;;;4.38;2.80;;;;;;;;;;8372071;28;20095;-89
2023/04/16 08:57:40;;;;;;;4.70;3.10;;;;;;;;;;8373812;28;20052;-88
2023/04/16 09:01:44;;;;;;;4.88;2.85;;;;;;;;;;8365657;28;20071;-89
2023/04/16 09:05:47;;;;;;;6.63;4.35;;;;;;;;;;8369603;28;20560;-89
2023/04/16 09:09:53;;;;;;;4.57;3.38;;;;;;;;;;8377323;28;20041;-89
2023/04/16 09:13:58;;;;;;;3.80;2.88;;;;;;;;;;8388314;28;20555;-88
2023/04/16 09:18:01;;;;;;;3.72;2.35;;;;;;;;;;8376317;28;20523;-88
2023/04/16 09:22:05;;;;;;;3.30;2.33;;;;;;;;;;8384092;28;20045;-89
2023/04/16 09:26:08;;;;;;;3.65;2.50;;;;;;;;;;8380959;28;20055;-89
2023/04/16 09:30:24;;;;;;;3.65;2.42;;;;;;;;;;8385146;28;19925;-88
2023/04/16 09:34:27;;;;;;;15.10;10.30;;;;;;;;;;8389838;28;20044;-89
2023/04/16 09:38:46;;;;;;;4.07;2.70;;;;;;;;;;8358069;28;20427;-88
2023/04/16 09:42:50;;;;;;;9.57;5.93;;;;;;;;;;8387562;28;20049;-88
2023/04/16 09:46:55;;;;;;;8.18;5.15;;;;;;;;;;8374980;28;20044;-88
2023/04/16 09:50:58;;;;;;;6.32;3.60;;;;;;;;;;8370617;28;20087;-88
2023/04/16 09:55:01;;;;;;;9.75;4.90;;;;;;;;;;8382903;28;20052;-88
2023/04/16 09:59:05;;;;;;;4.72;3.05;;;;;;;;;;8381672;28;20048;-89
2023/04/16 10:03:09;;;;;;;3.88;2.70;;;;;;;;;;8376587;28;20483;-87
2023/04/16 10:07:12;;;;;;;12.02;6.88;;;;;;;;;;8380205;28;20052;-88
2023/04/16 10:11:16;;;;;;;5.25;3.20;;;;;;;;;;8378104;28;20045;-89
2023/04/16 10:15:19;;;;;;;6.07;3.70;;;;;;;;;;8382572;28;20036;-88
2023/04/16 10:19:25;;;;;;;8.43;3.95;;;;;;;;;;8380270;28;20487;-88
2023/04/16 10:23:28;;;;;;;5.28;3.25;;;;;;;;;;8377951;28;20503;-88
2023/04/16 10:27:31;;;;;;;5.57;3.75;;;;;;;;;;8380912;28;20045;-88
2023/04/16 10:31:36;;;;;;;5.07;2.97;;;;;;;;;;8376791;28;20057;-88
2023/04/16 10:35:42;;;;;;;5.38;3.15;;;;;;;;;;8378948;28;20098;-88
2023/04/16 10:39:45;;;;;;;6.38;3.55;;;;;;;;;;8375640;28;20488;-88
2023/04/16 10:43:49;;;;;;;5.88;3.33;;;;;;;;;;8382250;28;20040;-89
2023/04/16 10:47:57;;;;;;;6.35;3.47;;;;;;;;;;8380695;28;20051;-87
2023/04/16 10:52:10;;;;;;;4.75;3.20;;;;;;;;;;8374245;28;20049;-88
2023/04/16 10:56:14;;;;;;;5.32;3.38;;;;;;;;;;8375065;28;20049;-88
2023/04/16 11:00:23;;;;;;;5.35;3.53;;;;;;;;;;8376668;28;20048;-87
2023/04/16 11:04:44;;;;;;;5.32;3.58;;;;;;;;;;8386584;28;20048;-88
2023/04/16 11:08:52;;;;;;;5.47;3.08;;;;;;;;;;8393929;28;20492;-88
2023/04/16 11:12:56;;;;;;;5.30;3.10;;;;;;;;;;8394962;28;20048;-88
2023/04/16 11:17:03;;;;;;;5.38;3.47;;;;;;;;;;8394729;28;20063;-88
2023/04/16 11:21:10;;;;;;;5.80;3.50;;;;;;;;;;8394690;28;20044;-88
2023/04/16 11:25:21;;;;;;;5.82;3.67;;;;;;;;;;8392715;28;20041;-88
2023/04/16 11:29:24;;;;;;;5.63;3.80;;;;;;;;;;8384046;28;20048;-89
2023/04/16 11:33:27;;;;;;;6.03;3.88;;;;;;;;;;8377397;28;20061;-89
2023/04/16 11:37:34;;;;;;;6.13;3.55;;;;;;;;;;8379005;28;20091;-90
2023/04/16 11:41:44;;;;;;;5.10;3.33;;;;;;;;;;8390373;28;20059;-89
2023/04/16 11:45:57;;;;;;;12.73;7.45;;;;;;;;;;8391621;28;20435;-87
2023/04/16 11:50:16;;;;;;;5.38;3.60;;;;;;;;;;8377104;28;20049;-89
2023/04/16 11:54:20;;;;;;;5.80;3.55;;;;;;;;;;8381744;28;20074;-89
2023/04/16 11:58:25;;;;;;;6.00;3.45;;;;;;;;;;8388539;28;20044;-89
2023/04/16 12:02:39;;;;;;;5.43;3.80;;;;;;;;;;8380405;28;20060;-87
2023/04/16 12:07:05;;;;;;;5.63;3.63;;;;;;;;;;8391430;28;20052;-88
2023/04/16 12:11:08;;;;;;;7.70;3.90;;;;;;;;;;8371447;28;20044;-88
2023/04/16 12:15:13;;;;;;;5.47;3.90;;;;;;;;;;8369644;28;20047;-88
2023/04/16 12:19:16;;;;;;;6.57;3.60;;;;;;;;;;8388125;28;20127;-89
2023/04/16 12:23:27;;;;;;;5.28;3.63;;;;;;;;;;8388336;28;20114;-89
2023/04/16 12:27:46;;;;;;;5.28;3.53;;;;;;;;;;8367706;28;20140;-89
2023/04/16 12:31:52;;;;;;;5.75;3.35;;;;;;;;;;8393047;28;20052;-89
2023/04/16 12:35:55;;;;;;;6.40;3.60;;;;;;;;;;8393171;28;20045;-89
2023/04/16 12:39:59;;;;;;;5.03;3.28;;;;;;;;;;8375284;28;20048;-90
2023/04/16 12:44:07;;;;;;;5.47;3.33;;;;;;;;;;8392212;28;20063;-88
2023/04/16 12:48:12;;;;;;;8.57;3.55;;;;;;;;;;8392089;28;20041;-89
2023/04/16 12:52:15;;;;;;;7.07;3.90;;;;;;;;;;8380704;28;20400;-90
2023/04/16 12:56:20;;;;;;;7.55;4.15;;;;;;;;;;8386188;28;20048;-88
2023/04/16 13:00:26;;;;;;;4.45;3.10;;;;;;;;;;8387133;28;20052;-88
2023/04/16 13:04:31;;;;;;;4.78;3.42;;;;;;;;;;8391648;28;20052;-87
2023/04/16 13:08:34;;;;;;;6.60;3.50;;;;;;;;;;8380566;28;20082;-88
2023/04/16 13:12:37;;;;;;;6.88;4.47;;;;;;;;;;8392024;28;20556;-88
2023/04/16 13:16:41;;;;;;;7.15;4.53;;;;;;;;;;8388417;28;20063;-88
2023/04/16 13:20:46;;;;;;;5.88;4.30;;;;;;;;;;8381920;28;20040;-87
2023/04/16 13:24:49;;;;;;;6.68;4.25;;;;;;;;;;8391802;28;20056;-87
2023/04/16 13:28:52;;;;;;;6.20;4.22;;;;;;;;;;8390840;28;20185;-87
2023/04/16 13:33:00;;;;;;;9.23;3.95;;;;;;;;;;8384662;28;20056;-87
2023/04/16 13:37:06;;;;;;;6.10;3.97;;;;;;;;;;8388637;28;20054;-87
2023/04/16 13:41:09;;;;;;;7.03;4.50;;;;;;;;;;8360022;28;20114;-87
2023/04/16 13:45:13;;;;;;;6.45;4.80;;;;;;;;;;8383202;28;20048;-86
2023/04/16 13:49:16;;;;;;;7.57;5.28;;;;;;;;;;8381365;28;20041;-87
2023/04/16 13:53:20;;;;;;;7.43;5.22;;;;;;;;;;8384294;28;20503;-87
2023/04/16 13:57:25;;;;;;;6.10;4.18;;;;;;;;;;8379668;28;20079;-87
2023/04/16 14:01:29;;;;;;;7.68;5.15;;;;;;;;;;8384406;28;20199;-88
2023/04/16 14:05:33;;;;;;;7.50;4.80;;;;;;;;;;8384190;28;20484;-87
2023/04/16 14:09:38;;;;;;;6.57;4.57;;;;;;;;;;8371350;28;20044;-87
2023/04/16 14:13:41;;;;;;;7.93;4.45;;;;;;;;;;8390391;28;20456;-87
2023/04/16 14:17:45;;;;;;;8.18;5.15;;;;;;;;;;8372410;28;20457;-87
2023/04/16 14:21:48;;;;;;;18.55;12.90;;;;;;;;;;8366651;28;20080;-86
2023/04/16 14:25:54;;;;;;;8.60;5.95;;;;;;;;;;8374189;28;20163;-86
2023/04/16 14:29:57;;;;;;;7.55;4.72;;;;;;;;;;8388583;28;20155;-87
2023/04/16 14:34:00;;;;;;;8.80;5.82;;;;;;;;;;8372271;28;20082;-86
2023/04/16 14:38:04;;;;;;;12.80;7.05;;;;;;;;;;8364060;28;20563;-86
2023/04/16 14:42:08;;;;;;;7.60;5.10;;;;;;;;;;8386342;28;20055;-86
2023/04/16 14:46:12;;;;;;;7.10;4.78;;;;;;;;;;8385707;28;20131;-86
2023/04/16 14:50:15;;;;;;;24.40;13.63;;;;;;;;;;8383530;28;20048;-86
2023/04/16 14:54:19;;;;;;;9.73;5.47;;;;;;;;;;8379083;28;20508;-86
2023/04/16 14:58:23;;;;;;;17.10;10.43;;;;;;;;;;8386247;28;20479;-87
2023/04/16 15:02:26;;;;;;;35.65;20.90;;;;;;;;;;8389674;28;20069;-86
2023/04/16 15:06:30;;;;;;;10.95;6.40;;;;;;;;;;8394433;28;20055;-86
2023/04/16 15:10:34;;;;;;;11.30;5.53;;;;;;;;;;8385115;28;20045;-86
2023/04/16 15:14:39;;;;;;;7.25;4.95;;;;;;;;;;8384778;28;20514;-87
2023/04/16 15:18:42;;;;;;;6.60;4.65;;;;;;;;;;8388505;28;20044;-87
2023/04/16 15:22:45;;;;;;;11.95;7.88;;;;;;;;;;8384680;28;20064;-86
2023/04/16 15:26:49;;;;;;;7.85;5.25;;;;;;;;;;8383788;28;20044;-86
2023/04/16 15:30:54;;;;;;;7.32;4.68;;;;;;;;;;8376153;28;20147;-87
2023/04/16 15:34:58;;;;;;;8.85;5.22;;;;;;;;;;8342886;28;20155;-86
2023/04/16 15:39:02;;;;;;;7.82;5.22;;;;;;;;;;8382342;28;20045;-87
2023/04/16 15:43:08;;;;;;;9.45;5.20;;;;;;;;;;8386858;28;20053;-87
2023/04/16 15:47:13;;;;;;;8.52;5.18;;;;;;;;;;8379113;28;21001;-88
2023/04/16 15:51:17;;;;;;;17.15;7.55;;;;;;;;;;8386639;28;20051;-89
2023/04/16 15:55:22;;;;;;;6.00;4.25;;;;;;;;;;8382929;28;20055;-86
2023/04/16 15:59:25;;;;;;;7.63;4.95;;;;;;;;;;8385604;28;20547;-86
2023/04/16 16:03:34;;;;;;;6.45;4.88;;;;;;;;;;8383520;28;20494;-88
2023/04/16 16:07:39;;;;;;;8.88;5.35;;;;;;;;;;8379941;28;20040;-85
2023/04/16 16:11:44;;;;;;;12.90;6.38;;;;;;;;;;8387014;28;20093;-87
2023/04/16 16:15:47;;;;;;;8.32;4.78;;;;;;;;;;8383786;28;20123;-87
2023/04/16 16:19:52;;;;;;;7.93;5.20;;;;;;;;;;8384912;28;20117;-87
2023/04/16 16:23:56;;;;;;;7.43;5.40;;;;;;;;;;8384237;28;20048;-88
2023/04/16 16:28:00;;;;;;;7.57;4.80;;;;;;;;;;8384461;28;20119;-88
2023/04/16 16:32:04;;;;;;;13.15;7.20;;;;;;;;;;8388867;28;20065;-86
2023/04/16 16:36:11;;;;;;;8.75;5.88;;;;;;;;;;8381802;28;20049;-87
2023/04/16 16:40:16;;;;;;;9.70;6.07;;;;;;;;;;8386247;28;20079;-88
2023/04/16 16:44:20;;;;;;;7.30;5.30;;;;;;;;;;8376906;28;20060;-87
2023/04/16 16:48:24;;;;;;;7.13;5.45;;;;;;;;;;8382646;28;20082;-87
2023/04/16 16:52:30;;;;;;;9.70;6.05;;;;;;;;;;8388271;28;20041;-86
2023/04/16 16:56:35;;;;;;;9.70;6.22;;;;;;;;;;8374231;28;20052;-88
2023/04/16 17:00:38;;;;;;;14.52;8.63;;;;;;;;;;8381892;28;20051;-86
2023/04/16 17:04:41;;;;;;;12.25;6.97;;;;;;;;;;8384950;28;20040;-88
2023/04/16 17:08:49;;;;;;;9.32;5.97;;;;;;;;;;8389611;28;20048;-88
2023/04/16 17:12:55;;;;;;;9.98;6.68;;;;;;;;;;8369622;28;20126;-85
2023/04/16 17:16:59;;;;;;;9.80;6.95;;;;;;;;;;8381907;28;20411;-86
2023/04/16 17:21:02;;;;;;;11.18;7.70;;;;;;;;;;8382647;28;20120;-86
2023/04/16 17:25:08;;;;;;;14.80;8.05;;;;;;;;;;8376176;28;20495;-87
2023/04/16 17:29:12;;;;;;;55.85;26.20;;;;;;;;;;8375338;28;20072;-86
2023/04/16 17:33:15;;;;;;;10.68;6.97;;;;;;;;;;8385014;28;20052;-86
2023/04/16 17:37:19;;;;;;;12.00;6.93;;;;;;;;;;8381392;28;20032;-86
2023/04/16 17:41:26;;;;;;;11.50;6.55;;;;;;;;;;8377674;28;20040;-87
2023/04/16 17:45:30;;;;;;;15.82;10.15;;;;;;;;;;8387288;28;20483;-87
2023/04/16 17:49:36;;;;;;;14.70;9.73;;;;;;;;;;8384981;28;20048;-88
2023/04/16 17:53:42;;;;;;;19.13;9.95;;;;;;;;;;8382724;28;20044;-87
2023/04/16 17:57:52;;;;;;;87.72;40.95;;;;;;;;;;8388820;28;20064;-87
2023/04/16 18:01:56;;;;;;;31.75;16.83;;;;;;;;;;8389175;28;20093;-89
2023/04/16 18:06:00;;;;;;;22.38;13.40;;;;;;;;;;8390521;28;20048;-87
2023/04/16 18:10:08;;;;;;;19.38;11.00;;;;;;;;;;8375151;28;20041;-87
2023/04/16 18:14:18;;;;;;;18.35;11.20;;;;;;;;;;8395465;28;20514;-87
2023/04/16 18:18:22;;;;;;;18.85;11.27;;;;;;;;;;8385474;28;20471;-86
2023/04/16 18:22:28;;;;;;;22.83;12.35;;;;;;;;;;8392170;28;20052;-84
2023/04/16 18:26:32;;;;;;;19.92;11.63;;;;;;;;;;8373688;28;20052;-88
2023/04/16 18:30:49;;;;;;;24.75;15.88;;;;;;;;;;8376507;28;20044;-87
2023/04/16 18:34:54;;;;;;;22.27;15.02;;;;;;;;;;8388423;28;20041;-87
2023/04/16 18:39:01;;;;;;;19.02;12.30;;;;;;;;;;8378961;28;20127;-87
2023/04/16 18:43:06;;;;;;;18.17;11.27;;;;;;;;;;8397662;28;20480;-87
2023/04/16 18:47:12;;;;;;;22.15;14.23;;;;;;;;;;8406114;28;20116;-87
2023/04/16 18:51:17;;;;;;;24.30;13.55;;;;;;;;;;8377101;28;20055;-87
2023/04/16 18:55:23;;;;;;;24.00;13.60;;;;;;;;;;8377055;28;20518;-86
2023/04/16 18:59:28;;;;;;;20.35;11.80;;;;;;;;;;8406370;28;20177;-87
2023/04/16 19:03:33;;;;;;;23.70;13.23;;;;;;;;;;8394978;28;20399;-87
2023/04/16 19:07:38;;;;;;;27.67;17.58;;;;;;;;;;8393893;28;20392;-86
2023/04/16 19:11:46;;;;;;;19.83;12.38;;;;;;;;;;8405785;28;20050;-87
2023/04/16 19:15:50;;;;;;;29.30;15.10;;;;;;;;;;8391830;28;20487;-87
2023/04/16 19:19:57;;;;;;;28.42;14.60;;;;;;;;;;8394969;28;20048;-85
2023/04/16 19:24:02;;;;;;;24.45;14.65;;;;;;;;;;8392078;28;20045;-86
2023/04/16 19:28:06;;;;;;;23.10;13.50;;;;;;;;;;8398112;28;20044;-87
2023/04/16 19:32:11;;;;;;;29.35;13.32;;;;;;;;;;8400320;28;20052;-88
2023/04/16 19:36:17;;;;;;;28.50;15.70;;;;;;;;;;8400099;28;20621;-87
2023/04/16 19:40:24;;;;;;;28.42;15.98;;;;;;;;;;8400343;28;20043;-87
2023/04/16 19:44:31;;;;;;;26.08;14.27;;;;;;;;;;8394594;28;20483;-87
2023/04/16 19:48:35;;;;;;;24.50;14.48;;;;;;;;;;8381386;28;20492;-87
2023/04/16 19:52:43;;;;;;;24.13;12.95;;;;;;;;;;8399184;28;20052;-87
2023/04/16 19:56:50;;;;;;;22.35;13.48;;;;;;;;;;8399327;28;20072;-87
2023/04/16 20:00:57;;;;;;;24.48;14.23;;;;;;;;;;8391848;28;20472;-87
2023/04/16 20:05:01;;;;;;;26.98;14.32;;;;;;;;;;8400710;28;20045;-87
2023/04/16 20:09:06;;;;;;;27.73;13.55;;;;;;;;;;8408108;28;20097;-87
2023/04/16 20:13:12;;;;;;;22.13;12.45;;;;;;;;;;8396081;28;20047;-87
2023/04/16 20:17:17;;;;;;;21.08;11.93;;;;;;;;;;8396760;28;20044;-87
2023/04/16 20:21:21;;;;;;;23.05;12.65;;;;;;;;;;8407143;28;20510;-87
2023/04/16 20:25:26;;;;;;;23.58;12.88;;;;;;;;;;8398194;28;20057;-87
2023/04/16 20:29:30;;;;;;;25.60;14.10;;;;;;;;;;8387508;28;20098;-87
2023/04/16 20:33:34;;;;;;;24.30;13.30;;;;;;;;;;8397730;28;20139;-86
2023/04/16 20:37:38;;;;;;;23.90;12.55;;;;;;;;;;8397318;28;20063;-87
2023/04/16 20:41:44;;;;;;;26.50;13.70;;;;;;;;;;8391804;28;20574;-86
2023/04/16 20:45:49;;;;;;;24.45;13.18;;;;;;;;;;8405812;28;20127;-87
2023/04/16 20:49:53;;;;;;;23.67;12.15;;;;;;;;;;8397232;28;20053;-87
2023/04/16 20:53:56;;;;;;;22.17;13.38;;;;;;;;;;8406105;28;20045;-86
2023/04/16 20:58:01;;;;;;;19.38;10.68;;;;;;;;;;8397211;28;20068;-88
2023/04/16 21:02:04;;;;;;;23.40;12.85;;;;;;;;;;8404065;28;20459;-85
2023/04/16 21:06:07;;;;;;;22.98;13.60;;;;;;;;;;8393232;28;20045;-86
2023/04/16 21:10:10;;;;;;;21.25;12.35;;;;;;;;;;8396770;28;20044;-86
2023/04/16 21:14:15;;;;;;;20.63;11.52;;;;;;;;;;8396476;28;20602;-85
2023/04/16 21:18:18;;;;;;;29.95;16.02;;;;;;;;;;8397145;28;20036;-86
2023/04/16 21:22:21;;;;;;;21.35;12.52;;;;;;;;;;8396255;28;20045;-87
2023/04/16 21:26:24;;;;;;;24.42;14.38;;;;;;;;;;8400236;28;20040;-86
2023/04/16 21:30:29;;;;;;;23.02;13.57;;;;;;;;;;8396069;28;20563;-87
2023/04/16 21:34:32;;;;;;;26.73;15.13;;;;;;;;;;8395845;28;20056;-86
2023/04/16 21:38:35;;;;;;;24.15;15.23;;;;;;;;;;8398628;28;20468;-86
2023/04/16 21:42:38;;;;;;;24.60;14.55;;;;;;;;;;8405072;28;20040;-86
2023/04/16 21:46:43;;;;;;;26.25;15.10;;;;;;;;;;8395754;28;20047;-86
2023/04/16 21:50:46;;;;;;;25.80;15.80;;;;;;;;;;8394775;28;20543;-86
2023/04/16 21:54:49;;;;;;;39.00;20.88;;;;;;;;;;8395703;28;20591;-86
2023/04/16 21:58:52;;;;;;;34.47;20.52;;;;;;;;;;8395357;28;20048;-86
2023/04/16 22:02:58;;;;;;;42.65;21.38;;;;;;;;;;8393488;28;20067;-86
2023/04/16 22:07:02;;;;;;;33.92;19.65;;;;;;;;;;8394981;28;20131;-86
2023/04/16 22:11:05;;;;;;;32.95;18.67;;;;;;;;;;8397936;28;20052;-86
2023/04/16 22:15:09;;;;;;;30.13;17.05;;;;;;;;;;8395000;28;20075;-86
2023/04/16 22:19:14;;;;;;;29.73;15.98;;;;;;;;;;8391779;28;20048;-87
2023/04/16 22:23:17;;;;;;;35.15;17.88;;;;;;;;;;8393166;28;20044;-87
2023/04/16 22:27:20;;;;;;;32.25;17.27;;;;;;;;;;8394983;28;20045;-86
2023/04/16 22:31:23;;;;;;;35.65;16.70;;;;;;;;;;8394693;28;20072;-87
2023/04/16 22:35:27;;;;;;;28.65;15.60;;;;;;;;;;8396390;28;20036;-86
2023/04/16 22:39:30;;;;;;;31.67;16.15;;;;;;;;;;8394128;28;20470;-85
2023/04/16 22:43:35;;;;;;;27.50;14.82;;;;;;;;;;8388128;28;20044;-86
2023/04/16 22:47:38;;;;;;;31.15;16.45;;;;;;;;;;8398256;28;20047;-86
2023/04/16 22:51:43;;;;;;;31.98;15.45;;;;;;;;;;8394442;28;20044;-87
2023/04/16 22:55:46;;;;;;;32.42;16.17;;;;;;;;;;8403797;28;20411;-87
2023/04/16 22:59:49;;;;;;;35.53;16.13;;;;;;;;;;8395311;28;20495;-87
2023/04/16 23:03:52;;;;;;;32.08;15.23;;;;;;;;;;8399716;28;20480;-87
2023/04/16 23:07:57;;;;;;;28.75;14.50;;;;;;;;;;8402114;28;20055;-87
2023/04/16 23:12:00;;;;;;;33.88;16.65;;;;;;;;;;8401468;28;20461;-86
2023/04/16 23:16:04;;;;;;;31.27;15.55;;;;;;;;;;8400129;28;20067;-86
2023/04/16 23:20:08;;;;;;;30.80;14.43;;;;;;;;;;8398142;28;20044;-86
2023/04/16 23:24:13;;;;;;;28.55;14.63;;;;;;;;;;8399859;28;20123;-87
2023/04/16 23:28:16;;;;;;;35.55;17.00;;;;;;;;;;8400156;28;20414;-86
2023/04/16 23:32:19;;;;;;;38.97;16.45;;;;;;;;;;8394905;28;20055;-88
2023/04/16 23:36:22;;;;;;;35.53;17.95;;;;;;;;;;8404032;28;20384;-87
2023/04/16 23:40:26;;;;;;;32.03;14.77;;;;;;;;;;8404431;28;20044;-86
2023/04/16 23:44:29;;;;;;;35.58;16.40;;;;;;;;;;8405809;28;20502;-86
2023/04/16 23:48:32;;;;;;;34.63;15.35;;;;;;;;;;8384973;28;20056;-87
2023/04/16 23:52:35;;;;;;;40.58;17.33;;;;;;;;;;8399650;28;20046;-87
2023/04/16 23:56:42;;;;;;;40.03;17.58;;;;;;;;;;8399914;28;20498;-87
